This is the latest recevied weather packets stored in our database for station/object KE5YIM-13. If no packets are shown the sender has not sent any weather packets the latest 1 day(s).
| Time | Temp. | Humidity | Pressure | Rain* | Wind** | Luminosity | Snow |
|---|---|---|---|---|---|---|---|
| 1836274582 | 14.44° C | 82% | 1020.3 hPa | 0 mm | 0 m/s | 0 W/m² | - |
| 1836274436 | 14.44° C | 82% | 1020.5 hPa | 0 mm | 0 m/s | 0 W/m² | - |
| 1836274281 | 14.44° C | 82% | 1020.1 hPa | 0 mm | 0 m/s | 0 W/m² | - |
| 1836274134 | 14.44° C | 82% | 1020.3 hPa | 0 mm | 0 m/s | 0 W/m² | - |
| 1836273980 | 14.44° C | 83% | 1020.3 hPa | 0 mm | 0 m/s | 0 W/m² | - |
| 1778046715 | 15° C | 83% | 1012 hPa | 0 mm | 1.34 m/s, 249° | 0 W/m² | - |
| 1778046412 | 15° C | 83% | 1012.1 hPa | 0 mm | 1.34 m/s, 251° | 0 W/m² | - |
| 1778046107 | 15° C | 83% | 1012.1 hPa | 0 mm | 1.34 m/s, 176° | 0 W/m² | - |
| 1778045805 | 15° C | 83% | 1012.1 hPa | 0 mm | 0.45 m/s, 113° | 0 W/m² | - |
| 1778045504 | 15° C | 83% | 1012.1 hPa | 0 mm | 0.89 m/s, 232° | 0 W/m² | - |
| 1778045202 | 15° C | 82% | 1012.2 hPa | 0 mm | 0.45 m/s, 106° | 0 W/m² | - |
| 1778044900 | 15° C | 82% | 1012 hPa | 0 mm | 1.34 m/s, 215° | 0 W/m² | - |
| 1778044597 | 15.56° C | 82% | 1012.1 hPa | 0 mm | 0.45 m/s, 128° | 0 W/m² | - |
| 1778044293 | 15.56° C | 81% | 1012.1 hPa | 0 mm | 0.89 m/s, 209° | 0 W/m² | - |
| 1778043991 | 15.56° C | 81% | 1012 hPa | 0 mm | 0.89 m/s, 196° | 0 W/m² | - |
| 1778043688 | 15.56° C | 81% | 1012.2 hPa | 0 mm | 1.34 m/s, 138° | 0 W/m² | - |
| 1778043385 | 15.56° C | 81% | 1012.2 hPa | 0 mm | 0.89 m/s, 148° | 0 W/m² | - |
| 1778043081 | 15.56° C | 80% | 1012.2 hPa | 0 mm | 0.45 m/s, 101° | 0 W/m² | - |
| 1778042779 | 16.11° C | 80% | 1012.2 hPa | 0 mm | 0.89 m/s, 126° | 0 W/m² | - |
| 1778042476 | 16.11° C | 79% | 1012.1 hPa | 0 mm | 1.79 m/s, 282° | 0 W/m² | - |
| 1778042173 | 16.11° C | 79% | 1012.1 hPa | 0 mm | 1.34 m/s, 149° | 0 W/m² | - |
| 1778041871 | 16.11° C | 79% | 1012 hPa | 0 mm | 1.34 m/s, 305° | 0 W/m² | - |
| 1778041570 | 16.11° C | 79% | 1012.3 hPa | 0 mm | 1.79 m/s, 138° | 0 W/m² | - |
| 1778041267 | 16.11° C | 78% | 1012.3 hPa | 0 mm | 1.34 m/s, 244° | 0 W/m² | - |
| 1778040966 | 16.67° C | 78% | 1012.3 hPa | 0 mm | 1.79 m/s, 181° | 0 W/m² | - |
* Rain latest hour (hover to see other rain measurements)
** Current wind speed in m/s (hover to see current wind gust speed)